sensor_id;sensor_type;location;lat;lon;timestamp;P1;durP1;ratioP1;P2;durP2;ratioP2
45540;SDS011;31265;49.680;8.608;2023-02-28T00:04:19;2.53;;;0.68;;
45540;SDS011;31265;49.680;8.608;2023-02-28T00:06:47;0.43;;;0.30;;
45540;SDS011;31265;49.680;8.608;2023-02-28T00:09:15;2.05;;;0.65;;
45540;SDS011;31265;49.680;8.608;2023-02-28T00:11:44;1.45;;;0.57;;
45540;SDS011;31265;49.680;8.608;2023-02-28T00:14:13;1.75;;;0.70;;
45540;SDS011;31265;49.680;8.608;2023-02-28T00:16:41;1.35;;;0.52;;
45540;SDS011;31265;49.680;8.608;2023-02-28T00:19:09;1.38;;;0.60;;
45540;SDS011;31265;49.680;8.608;2023-02-28T00:21:39;2.60;;;0.77;;
45540;SDS011;31265;49.680;8.608;2023-02-28T00:24:09;4.57;;;1.52;;
45540;SDS011;31265;49.680;8.608;2023-02-28T00:26:38;2.55;;;0.60;;
45540;SDS011;31265;49.680;8.608;2023-02-28T00:31:37;0.82;;;0.43;;
45540;SDS011;31265;49.680;8.608;2023-02-28T00:34:06;1.25;;;0.73;;
45540;SDS011;31265;49.680;8.608;2023-02-28T00:36:34;1.27;;;0.60;;
45540;SDS011;31265;49.680;8.608;2023-02-28T00:39:03;1.15;;;0.60;;
45540;SDS011;31265;49.680;8.608;2023-02-28T00:41:32;1.90;;;0.93;;
45540;SDS011;31265;49.680;8.608;2023-02-28T00:44:00;1.17;;;0.80;;
45540;SDS011;31265;49.680;8.608;2023-02-28T00:46:33;2.63;;;0.70;;
45540;SDS011;31265;49.680;8.608;2023-02-28T00:49:01;2.72;;;0.77;;
45540;SDS011;31265;49.680;8.608;2023-02-28T00:51:30;1.53;;;0.97;;
45540;SDS011;31265;49.680;8.608;2023-02-28T00:54:02;1.70;;;1.08;;
45540;SDS011;31265;49.680;8.608;2023-02-28T00:56:34;3.28;;;0.60;;
45540;SDS011;31265;49.680;8.608;2023-02-28T00:59:03;2.35;;;0.68;;
45540;SDS011;31265;49.680;8.608;2023-02-28T01:01:33;3.42;;;1.73;;
45540;SDS011;31265;49.680;8.608;2023-02-28T01:04:02;0.95;;;0.50;;
45540;SDS011;31265;49.680;8.608;2023-02-28T01:06:30;3.90;;;0.60;;
45540;SDS011;31265;49.680;8.608;2023-02-28T01:08:59;2.13;;;0.82;;
45540;SDS011;31265;49.680;8.608;2023-02-28T01:11:28;1.75;;;0.77;;
45540;SDS011;31265;49.680;8.608;2023-02-28T01:13:57;4.45;;;0.77;;
45540;SDS011;31265;49.680;8.608;2023-02-28T01:16:25;2.33;;;0.80;;
45540;SDS011;31265;49.680;8.608;2023-02-28T01:18:56;1.30;;;0.60;;
45540;SDS011;31265;49.680;8.608;2023-02-28T01:21:24;2.08;;;0.98;;
45540;SDS011;31265;49.680;8.608;2023-02-28T01:23:55;2.25;;;0.85;;
45540;SDS011;31265;49.680;8.608;2023-02-28T01:26:24;1.08;;;0.50;;
45540;SDS011;31265;49.680;8.608;2023-02-28T01:28:53;2.22;;;0.93;;
45540;SDS011;31265;49.680;8.608;2023-02-28T01:31:22;2.00;;;0.63;;
45540;SDS011;31265;49.680;8.608;2023-02-28T01:33:51;2.63;;;1.00;;
45540;SDS011;31265;49.680;8.608;2023-02-28T01:36:21;4.25;;;1.10;;
45540;SDS011;31265;49.680;8.608;2023-02-28T01:38:51;0.90;;;0.60;;
45540;SDS011;31265;49.680;8.608;2023-02-28T01:41:23;2.20;;;0.77;;
45540;SDS011;31265;49.680;8.608;2023-02-28T01:43:55;2.22;;;0.95;;
45540;SDS011;31265;49.680;8.608;2023-02-28T01:46:32;1.52;;;0.65;;
45540;SDS011;31265;49.680;8.608;2023-02-28T01:49:04;2.00;;;0.93;;
45540;SDS011;31265;49.680;8.608;2023-02-28T01:51:39;1.45;;;0.85;;
45540;SDS011;31265;49.680;8.608;2023-02-28T01:54:14;2.47;;;0.90;;
45540;SDS011;31265;49.680;8.608;2023-02-28T01:56:47;1.10;;;0.70;;
45540;SDS011;31265;49.680;8.608;2023-02-28T01:59:24;2.30;;;1.23;;
45540;SDS011;31265;49.680;8.608;2023-02-28T02:02:00;1.23;;;0.80;;
45540;SDS011;31265;49.680;8.608;2023-02-28T02:04:32;2.53;;;0.88;;
45540;SDS011;31265;49.680;8.608;2023-02-28T02:07:07;4.32;;;0.95;;
45540;SDS011;31265;49.680;8.608;2023-02-28T02:09:36;3.50;;;1.10;;
45540;SDS011;31265;49.680;8.608;2023-02-28T02:12:07;1.55;;;0.52;;
45540;SDS011;31265;49.680;8.608;2023-02-28T02:14:49;1.20;;;0.70;;
45540;SDS011;31265;49.680;8.608;2023-02-28T02:17:30;1.55;;;0.70;;
45540;SDS011;31265;49.680;8.608;2023-02-28T02:23:22;3.47;;;1.58;;
45540;SDS011;31265;49.680;8.608;2023-02-28T02:26:22;1.63;;;0.85;;
45540;SDS011;31265;49.680;8.608;2023-02-28T02:29:12;3.40;;;1.17;;
45540;SDS011;31265;49.680;8.608;2023-02-28T02:32:09;1.52;;;0.85;;
45540;SDS011;31265;49.680;8.608;2023-02-28T02:34:52;1.63;;;0.90;;
45540;SDS011;31265;49.680;8.608;2023-02-28T02:37:27;2.53;;;0.80;;
45540;SDS011;31265;49.680;8.608;2023-02-28T02:40:03;1.17;;;0.70;;
45540;SDS011;31265;49.680;8.608;2023-02-28T02:42:40;2.42;;;0.60;;
45540;SDS011;31265;49.680;8.608;2023-02-28T02:45:14;2.22;;;0.90;;
45540;SDS011;31265;49.680;8.608;2023-02-28T02:47:47;4.85;;;1.10;;
45540;SDS011;31265;49.680;8.608;2023-02-28T02:50:19;2.20;;;0.90;;
45540;SDS011;31265;49.680;8.608;2023-02-28T02:52:53;1.65;;;0.80;;
45540;SDS011;31265;49.680;8.608;2023-02-28T02:55:27;2.40;;;0.90;;
45540;SDS011;31265;49.680;8.608;2023-02-28T02:57:57;1.85;;;0.75;;
45540;SDS011;31265;49.680;8.608;2023-02-28T03:00:30;2.38;;;0.80;;
45540;SDS011;31265;49.680;8.608;2023-02-28T03:03:02;0.55;;;0.30;;
45540;SDS011;31265;49.680;8.608;2023-02-28T03:05:39;0.80;;;0.47;;
45540;SDS011;31265;49.680;8.608;2023-02-28T03:08:13;2.08;;;0.80;;
45540;SDS011;31265;49.680;8.608;2023-02-28T03:10:45;1.70;;;0.65;;
45540;SDS011;31265;49.680;8.608;2023-02-28T03:13:25;1.20;;;0.60;;
45540;SDS011;31265;49.680;8.608;2023-02-28T03:19:21;2.28;;;1.17;;
45540;SDS011;31265;49.680;8.608;2023-02-28T03:22:04;3.53;;;0.93;;
45540;SDS011;31265;49.680;8.608;2023-02-28T03:24:43;1.58;;;0.75;;
45540;SDS011;31265;49.680;8.608;2023-02-28T03:27:21;0.70;;;0.50;;
45540;SDS011;31265;49.680;8.608;2023-02-28T03:29:56;10.07;;;1.05;;
45540;SDS011;31265;49.680;8.608;2023-02-28T03:32:29;1.17;;;0.88;;
45540;SDS011;31265;49.680;8.608;2023-02-28T03:35:04;1.83;;;0.70;;
45540;SDS011;31265;49.680;8.608;2023-02-28T03:37:38;1.38;;;0.63;;
45540;SDS011;31265;49.680;8.608;2023-02-28T03:40:11;1.13;;;0.80;;
45540;SDS011;31265;49.680;8.608;2023-02-28T03:42:45;6.18;;;1.27;;
45540;SDS011;31265;49.680;8.608;2023-02-28T03:45:18;1.27;;;0.75;;
45540;SDS011;31265;49.680;8.608;2023-02-28T03:47:53;4.18;;;0.75;;
45540;SDS011;31265;49.680;8.608;2023-02-28T03:50:24;1.63;;;0.52;;
45540;SDS011;31265;49.680;8.608;2023-02-28T03:53:00;3.97;;;1.10;;
45540;SDS011;31265;49.680;8.608;2023-02-28T03:55:34;1.17;;;0.57;;
45540;SDS011;31265;49.680;8.608;2023-02-28T03:58:09;2.72;;;0.88;;
45540;SDS011;31265;49.680;8.608;2023-02-28T04:00:45;1.80;;;0.90;;
45540;SDS011;31265;49.680;8.608;2023-02-28T04:03:16;2.17;;;1.08;;
45540;SDS011;31265;49.680;8.608;2023-02-28T04:05:46;0.90;;;0.50;;
45540;SDS011;31265;49.680;8.608;2023-02-28T04:08:20;2.67;;;0.90;;
45540;SDS011;31265;49.680;8.608;2023-02-28T04:10:50;1.13;;;0.70;;
45540;SDS011;31265;49.680;8.608;2023-02-28T04:13:27;1.38;;;0.65;;
45540;SDS011;31265;49.680;8.608;2023-02-28T04:15:56;5.28;;;1.67;;
45540;SDS011;31265;49.680;8.608;2023-02-28T04:18:24;2.03;;;1.25;;
45540;SDS011;31265;49.680;8.608;2023-02-28T04:20:52;1.80;;;0.80;;
45540;SDS011;31265;49.680;8.608;2023-02-28T04:23:22;1.42;;;0.82;;
45540;SDS011;31265;49.680;8.608;2023-02-28T04:25:54;1.67;;;0.98;;
45540;SDS011;31265;49.680;8.608;2023-02-28T04:28:22;4.13;;;1.52;;
45540;SDS011;31265;49.680;8.608;2023-02-28T04:30:54;1.65;;;0.77;;
45540;SDS011;31265;49.680;8.608;2023-02-28T04:33:24;1.20;;;0.80;;
45540;SDS011;31265;49.680;8.608;2023-02-28T04:36:02;1.00;;;0.47;;
45540;SDS011;31265;49.680;8.608;2023-02-28T04:38:34;1.60;;;0.60;;
45540;SDS011;31265;49.680;8.608;2023-02-28T04:41:06;1.30;;;0.63;;
45540;SDS011;31265;49.680;8.608;2023-02-28T04:43:35;1.25;;;0.65;;
45540;SDS011;31265;49.680;8.608;2023-02-28T04:46:04;1.83;;;0.93;;
45540;SDS011;31265;49.680;8.608;2023-02-28T04:48:35;2.78;;;1.10;;
45540;SDS011;31265;49.680;8.608;2023-02-28T04:51:05;2.78;;;1.42;;
45540;SDS011;31265;49.680;8.608;2023-02-28T04:53:37;0.88;;;0.60;;
45540;SDS011;31265;49.680;8.608;2023-02-28T04:56:07;2.92;;;1.00;;
45540;SDS011;31265;49.680;8.608;2023-02-28T04:58:38;2.30;;;1.27;;
45540;SDS011;31265;49.680;8.608;2023-02-28T05:01:15;2.03;;;1.02;;
45540;SDS011;31265;49.680;8.608;2023-02-28T05:03:45;1.90;;;0.93;;
45540;SDS011;31265;49.680;8.608;2023-02-28T05:06:13;1.50;;;0.90;;
45540;SDS011;31265;49.680;8.608;2023-02-28T05:08:44;5.45;;;1.02;;
45540;SDS011;31265;49.680;8.608;2023-02-28T05:11:14;1.30;;;0.68;;
45540;SDS011;31265;49.680;8.608;2023-02-28T05:13:46;2.35;;;1.35;;
45540;SDS011;31265;49.680;8.608;2023-02-28T05:16:15;1.55;;;1.00;;
45540;SDS011;31265;49.680;8.608;2023-02-28T05:21:21;6.68;;;0.95;;
45540;SDS011;31265;49.680;8.608;2023-02-28T05:23:55;3.20;;;0.95;;
45540;SDS011;31265;49.680;8.608;2023-02-28T05:26:27;2.47;;;0.70;;
45540;SDS011;31265;49.680;8.608;2023-02-28T05:28:56;6.15;;;1.23;;
45540;SDS011;31265;49.680;8.608;2023-02-28T05:31:25;2.78;;;1.30;;
45540;SDS011;31265;49.680;8.608;2023-02-28T05:33:54;1.98;;;1.10;;
45540;SDS011;31265;49.680;8.608;2023-02-28T05:36:22;4.70;;;1.90;;
45540;SDS011;31265;49.680;8.608;2023-02-28T05:38:52;2.60;;;2.20;;
45540;SDS011;31265;49.680;8.608;2023-02-28T05:41:22;3.20;;;1.48;;
45540;SDS011;31265;49.680;8.608;2023-02-28T05:43:53;2.75;;;1.33;;
45540;SDS011;31265;49.680;8.608;2023-02-28T05:46:21;2.83;;;1.60;;
45540;SDS011;31265;49.680;8.608;2023-02-28T05:48:53;2.88;;;1.55;;
45540;SDS011;31265;49.680;8.608;2023-02-28T05:51:22;3.15;;;1.33;;
45540;SDS011;31265;49.680;8.608;2023-02-28T05:53:51;1.25;;;0.70;;
45540;SDS011;31265;49.680;8.608;2023-02-28T05:56:20;1.25;;;0.70;;
45540;SDS011;31265;49.680;8.608;2023-02-28T05:58:50;1.70;;;1.05;;
45540;SDS011;31265;49.680;8.608;2023-02-28T06:01:19;2.33;;;1.42;;
45540;SDS011;31265;49.680;8.608;2023-02-28T06:03:52;1.73;;;1.00;;
45540;SDS011;31265;49.680;8.608;2023-02-28T06:06:21;1.65;;;1.00;;
45540;SDS011;31265;49.680;8.608;2023-02-28T06:08:49;4.68;;;1.63;;
45540;SDS011;31265;49.680;8.608;2023-02-28T06:11:18;1.00;;;0.52;;
45540;SDS011;31265;49.680;8.608;2023-02-28T06:13:47;1.40;;;1.30;;
45540;SDS011;31265;49.680;8.608;2023-02-28T06:16:17;1.65;;;0.95;;
45540;SDS011;31265;49.680;8.608;2023-02-28T06:18:45;2.45;;;0.90;;
45540;SDS011;31265;49.680;8.608;2023-02-28T06:21:13;2.30;;;1.17;;
45540;SDS011;31265;49.680;8.608;2023-02-28T06:23:42;1.15;;;0.60;;
45540;SDS011;31265;49.680;8.608;2023-02-28T06:26:10;1.67;;;1.02;;
45540;SDS011;31265;49.680;8.608;2023-02-28T06:28:39;3.40;;;1.25;;
45540;SDS011;31265;49.680;8.608;2023-02-28T06:31:07;2.35;;;0.95;;
45540;SDS011;31265;49.680;8.608;2023-02-28T06:33:38;2.13;;;0.95;;
45540;SDS011;31265;49.680;8.608;2023-02-28T06:36:08;3.83;;;1.15;;
45540;SDS011;31265;49.680;8.608;2023-02-28T06:38:38;1.23;;;0.73;;
45540;SDS011;31265;49.680;8.608;2023-02-28T06:41:07;2.28;;;1.30;;
45540;SDS011;31265;49.680;8.608;2023-02-28T06:43:36;3.80;;;1.73;;
45540;SDS011;31265;49.680;8.608;2023-02-28T06:46:07;2.20;;;0.95;;
45540;SDS011;31265;49.680;8.608;2023-02-28T06:48:38;2.33;;;0.93;;
45540;SDS011;31265;49.680;8.608;2023-02-28T06:51:07;3.38;;;1.40;;
45540;SDS011;31265;49.680;8.608;2023-02-28T06:53:37;1.75;;;1.13;;
45540;SDS011;31265;49.680;8.608;2023-02-28T06:56:06;3.25;;;1.42;;
45540;SDS011;31265;49.680;8.608;2023-02-28T06:58:36;4.38;;;1.30;;
45540;SDS011;31265;49.680;8.608;2023-02-28T07:01:06;2.42;;;0.93;;
45540;SDS011;31265;49.680;8.608;2023-02-28T07:03:35;1.00;;;0.52;;
45540;SDS011;31265;49.680;8.608;2023-02-28T07:06:06;2.57;;;1.00;;
45540;SDS011;31265;49.680;8.608;2023-02-28T07:08:35;2.75;;;1.40;;
45540;SDS011;31265;49.680;8.608;2023-02-28T07:11:04;4.50;;;1.65;;
45540;SDS011;31265;49.680;8.608;2023-02-28T07:13:33;7.15;;;1.00;;
45540;SDS011;31265;49.680;8.608;2023-02-28T07:16:02;2.33;;;1.23;;
45540;SDS011;31265;49.680;8.608;2023-02-28T07:18:32;1.75;;;1.05;;
45540;SDS011;31265;49.680;8.608;2023-02-28T07:21:01;0.82;;;0.55;;
45540;SDS011;31265;49.680;8.608;2023-02-28T07:23:31;2.30;;;1.15;;
45540;SDS011;31265;49.680;8.608;2023-02-28T07:26:00;3.05;;;1.38;;
45540;SDS011;31265;49.680;8.608;2023-02-28T07:28:29;2.00;;;1.27;;
45540;SDS011;31265;49.680;8.608;2023-02-28T07:31:02;3.28;;;1.65;;
45540;SDS011;31265;49.680;8.608;2023-02-28T07:33:32;2.67;;;1.05;;
45540;SDS011;31265;49.680;8.608;2023-02-28T07:36:02;1.70;;;1.10;;
45540;SDS011;31265;49.680;8.608;2023-02-28T07:38:34;1.67;;;0.82;;
45540;SDS011;31265;49.680;8.608;2023-02-28T07:41:03;1.58;;;0.52;;
45540;SDS011;31265;49.680;8.608;2023-02-28T07:43:32;3.37;;;1.13;;
45540;SDS011;31265;49.680;8.608;2023-02-28T07:46:01;3.72;;;1.27;;
45540;SDS011;31265;49.680;8.608;2023-02-28T07:48:33;3.25;;;1.35;;
45540;SDS011;31265;49.680;8.608;2023-02-28T07:51:01;1.77;;;1.02;;
45540;SDS011;31265;49.680;8.608;2023-02-28T07:53:30;2.00;;;0.73;;
45540;SDS011;31265;49.680;8.608;2023-02-28T07:56:01;1.35;;;0.88;;
45540;SDS011;31265;49.680;8.608;2023-02-28T07:58:30;2.67;;;1.27;;
45540;SDS011;31265;49.680;8.608;2023-02-28T08:03:36;2.22;;;1.10;;
45540;SDS011;31265;49.680;8.608;2023-02-28T08:06:06;2.55;;;1.27;;
45540;SDS011;31265;49.680;8.608;2023-02-28T08:08:37;4.50;;;1.30;;
45540;SDS011;31265;49.680;8.608;2023-02-28T08:11:07;3.42;;;1.30;;
45540;SDS011;31265;49.680;8.608;2023-02-28T08:13:35;3.15;;;1.20;;
45540;SDS011;31265;49.680;8.608;2023-02-28T08:16:05;4.00;;;1.90;;
45540;SDS011;31265;49.680;8.608;2023-02-28T08:18:34;3.28;;;1.17;;
45540;SDS011;31265;49.680;8.608;2023-02-28T08:21:05;2.97;;;1.33;;
45540;SDS011;31265;49.680;8.608;2023-02-28T08:23:34;4.50;;;1.33;;
45540;SDS011;31265;49.680;8.608;2023-02-28T08:26:03;3.95;;;1.40;;
45540;SDS011;31265;49.680;8.608;2023-02-28T08:31:06;4.47;;;1.35;;
45540;SDS011;31265;49.680;8.608;2023-02-28T08:33:36;2.38;;;1.05;;
45540;SDS011;31265;49.680;8.608;2023-02-28T08:36:07;3.10;;;1.40;;
45540;SDS011;31265;49.680;8.608;2023-02-28T08:38:38;3.40;;;1.10;;
45540;SDS011;31265;49.680;8.608;2023-02-28T08:41:10;1.67;;;0.73;;
45540;SDS011;31265;49.680;8.608;2023-02-28T08:43:41;1.88;;;1.05;;
45540;SDS011;31265;49.680;8.608;2023-02-28T08:46:12;4.15;;;1.45;;
45540;SDS011;31265;49.680;8.608;2023-02-28T08:48:41;2.13;;;1.17;;
45540;SDS011;31265;49.680;8.608;2023-02-28T08:51:11;4.55;;;1.35;;
45540;SDS011;31265;49.680;8.608;2023-02-28T08:53:48;2.13;;;1.20;;
45540;SDS011;31265;49.680;8.608;2023-02-28T08:56:17;1.90;;;1.30;;
45540;SDS011;31265;49.680;8.608;2023-02-28T08:58:58;6.32;;;1.23;;
45540;SDS011;31265;49.680;8.608;2023-02-28T09:01:27;2.83;;;1.55;;
45540;SDS011;31265;49.680;8.608;2023-02-28T09:03:57;3.00;;;1.48;;
45540;SDS011;31265;49.680;8.608;2023-02-28T09:06:29;1.90;;;1.10;;
45540;SDS011;31265;49.680;8.608;2023-02-28T09:08:58;6.03;;;1.67;;
45540;SDS011;31265;49.680;8.608;2023-02-28T09:11:28;3.53;;;1.52;;
45540;SDS011;31265;49.680;8.608;2023-02-28T09:14:01;3.22;;;1.52;;
45540;SDS011;31265;49.680;8.608;2023-02-28T09:16:31;4.80;;;2.08;;
45540;SDS011;31265;49.680;8.608;2023-02-28T09:19:05;4.15;;;1.77;;
45540;SDS011;31265;49.680;8.608;2023-02-28T09:24:02;4.53;;;1.35;;
45540;SDS011;31265;49.680;8.608;2023-02-28T09:26:31;4.93;;;1.92;;
45540;SDS011;31265;49.680;8.608;2023-02-28T09:29:14;2.88;;;1.52;;
45540;SDS011;31265;49.680;8.608;2023-02-28T09:31:44;4.97;;;1.35;;
45540;SDS011;31265;49.680;8.608;2023-02-28T09:34:13;5.32;;;1.75;;
45540;SDS011;31265;49.680;8.608;2023-02-28T09:36:42;4.60;;;1.73;;
45540;SDS011;31265;49.680;8.608;2023-02-28T09:39:14;4.85;;;1.65;;
45540;SDS011;31265;49.680;8.608;2023-02-28T09:41:47;5.50;;;2.30;;
45540;SDS011;31265;49.680;8.608;2023-02-28T09:44:22;6.25;;;1.63;;
45540;SDS011;31265;49.680;8.608;2023-02-28T09:46:57;6.63;;;2.78;;
45540;SDS011;31265;49.680;8.608;2023-02-28T09:49:37;3.13;;;1.45;;
45540;SDS011;31265;49.680;8.608;2023-02-28T09:52:10;7.03;;;2.22;;
45540;SDS011;31265;49.680;8.608;2023-02-28T09:54:41;5.70;;;1.83;;
45540;SDS011;31265;49.680;8.608;2023-02-28T09:57:13;6.40;;;2.10;;
45540;SDS011;31265;49.680;8.608;2023-02-28T09:59:51;5.65;;;2.42;;
45540;SDS011;31265;49.680;8.608;2023-02-28T10:02:41;3.55;;;1.88;;
45540;SDS011;31265;49.680;8.608;2023-02-28T10:05:17;5.10;;;2.30;;
45540;SDS011;31265;49.680;8.608;2023-02-28T10:08:00;4.20;;;1.85;;
45540;SDS011;31265;49.680;8.608;2023-02-28T10:10:36;6.20;;;2.65;;
45540;SDS011;31265;49.680;8.608;2023-02-28T10:13:12;3.28;;;1.83;;
45540;SDS011;31265;49.680;8.608;2023-02-28T10:15:47;8.10;;;2.58;;
45540;SDS011;31265;49.680;8.608;2023-02-28T10:18:21;3.63;;;1.65;;
45540;SDS011;31265;49.680;8.608;2023-02-28T10:20:53;5.00;;;2.13;;
45540;SDS011;31265;49.680;8.608;2023-02-28T10:23:28;4.03;;;1.73;;
45540;SDS011;31265;49.680;8.608;2023-02-28T10:26:08;5.28;;;2.40;;
45540;SDS011;31265;49.680;8.608;2023-02-28T10:28:42;4.75;;;2.50;;
45540;SDS011;31265;49.680;8.608;2023-02-28T10:31:19;4.55;;;1.92;;
45540;SDS011;31265;49.680;8.608;2023-02-28T10:33:50;4.60;;;2.13;;
45540;SDS011;31265;49.680;8.608;2023-02-28T10:36:32;5.25;;;2.38;;
45540;SDS011;31265;49.680;8.608;2023-02-28T10:42:02;3.60;;;1.88;;
45540;SDS011;31265;49.680;8.608;2023-02-28T10:44:31;5.70;;;2.08;;
45540;SDS011;31265;49.680;8.608;2023-02-28T10:47:01;5.20;;;2.35;;
45540;SDS011;31265;49.680;8.608;2023-02-28T10:49:30;7.03;;;3.25;;
45540;SDS011;31265;49.680;8.608;2023-02-28T10:51:59;4.55;;;2.30;;
45540;SDS011;31265;49.680;8.608;2023-02-28T10:54:30;4.20;;;2.17;;
45540;SDS011;31265;49.680;8.608;2023-02-28T10:57:05;5.32;;;2.45;;
45540;SDS011;31265;49.680;8.608;2023-02-28T10:59:36;4.18;;;2.10;;
45540;SDS011;31265;49.680;8.608;2023-02-28T11:07:57;3.45;;;1.85;;
45540;SDS011;31265;49.680;8.608;2023-02-28T11:10:32;4.00;;;1.98;;
45540;SDS011;31265;49.680;8.608;2023-02-28T11:13:02;4.25;;;2.05;;
45540;SDS011;31265;49.680;8.608;2023-02-28T11:15:32;7.47;;;1.85;;
45540;SDS011;31265;49.680;8.608;2023-02-28T11:18:06;5.45;;;2.25;;
45540;SDS011;31265;49.680;8.608;2023-02-28T11:20:50;5.40;;;2.17;;
45540;SDS011;31265;49.680;8.608;2023-02-28T11:23:29;6.55;;;2.35;;
45540;SDS011;31265;49.680;8.608;2023-02-28T11:26:04;4.38;;;2.40;;
45540;SDS011;31265;49.680;8.608;2023-02-28T11:28:39;6.63;;;2.40;;
45540;SDS011;31265;49.680;8.608;2023-02-28T11:31:16;6.45;;;2.78;;
45540;SDS011;31265;49.680;8.608;2023-02-28T11:33:48;3.80;;;2.03;;
45540;SDS011;31265;49.680;8.608;2023-02-28T11:36:21;5.90;;;2.17;;
45540;SDS011;31265;49.680;8.608;2023-02-28T11:38:51;8.50;;;2.97;;
45540;SDS011;31265;49.680;8.608;2023-02-28T11:41:34;4.40;;;2.45;;
45540;SDS011;31265;49.680;8.608;2023-02-28T11:44:17;6.90;;;2.47;;
45540;SDS011;31265;49.680;8.608;2023-02-28T11:46:57;3.95;;;2.03;;
45540;SDS011;31265;49.680;8.608;2023-02-28T11:49:33;4.88;;;2.70;;
45540;SDS011;31265;49.680;8.608;2023-02-28T11:52:13;4.07;;;2.05;;
45540;SDS011;31265;49.680;8.608;2023-02-28T11:54:55;4.00;;;1.95;;
45540;SDS011;31265;49.680;8.608;2023-02-28T12:00:40;5.28;;;2.25;;
45540;SDS011;31265;49.680;8.608;2023-02-28T12:03:40;5.25;;;1.92;;
45540;SDS011;31265;49.680;8.608;2023-02-28T12:06:17;6.72;;;2.13;;
45540;SDS011;31265;49.680;8.608;2023-02-28T12:08:55;3.92;;;2.17;;
45540;SDS011;31265;49.680;8.608;2023-02-28T12:11:39;5.35;;;2.17;;
45540;SDS011;31265;49.680;8.608;2023-02-28T12:14:29;6.45;;;2.30;;
45540;SDS011;31265;49.680;8.608;2023-02-28T12:19:54;5.18;;;2.72;;
45540;SDS011;31265;49.680;8.608;2023-02-28T12:22:36;4.68;;;2.10;;
45540;SDS011;31265;49.680;8.608;2023-02-28T12:28:26;7.50;;;2.50;;
45540;SDS011;31265;49.680;8.608;2023-02-28T12:31:00;5.57;;;2.40;;
45540;SDS011;31265;49.680;8.608;2023-02-28T12:33:33;5.13;;;2.83;;
45540;SDS011;31265;49.680;8.608;2023-02-28T12:36:05;4.30;;;2.28;;
45540;SDS011;31265;49.680;8.608;2023-02-28T12:38:41;6.68;;;2.80;;
45540;SDS011;31265;49.680;8.608;2023-02-28T12:41:14;5.07;;;2.00;;
45540;SDS011;31265;49.680;8.608;2023-02-28T12:43:48;6.57;;;2.45;;
45540;SDS011;31265;49.680;8.608;2023-02-28T12:46:24;5.43;;;2.30;;
45540;SDS011;31265;49.680;8.608;2023-02-28T12:48:58;4.18;;;2.22;;
45540;SDS011;31265;49.680;8.608;2023-02-28T12:51:32;4.47;;;2.10;;
45540;SDS011;31265;49.680;8.608;2023-02-28T12:54:07;6.18;;;2.85;;
45540;SDS011;31265;49.680;8.608;2023-02-28T12:56:46;8.10;;;3.28;;
45540;SDS011;31265;49.680;8.608;2023-02-28T12:59:23;5.63;;;3.10;;
45540;SDS011;31265;49.680;8.608;2023-02-28T13:02:06;5.30;;;2.63;;
45540;SDS011;31265;49.680;8.608;2023-02-28T13:08:03;4.47;;;2.38;;
45540;SDS011;31265;49.680;8.608;2023-02-28T13:10:45;4.78;;;2.35;;
45540;SDS011;31265;49.680;8.608;2023-02-28T13:13:17;4.55;;;1.92;;
45540;SDS011;31265;49.680;8.608;2023-02-28T13:16:04;6.78;;;2.78;;
45540;SDS011;31265;49.680;8.608;2023-02-28T13:18:38;5.53;;;2.67;;
45540;SDS011;31265;49.680;8.608;2023-02-28T13:21:21;5.32;;;2.58;;
45540;SDS011;31265;49.680;8.608;2023-02-28T13:23:59;4.20;;;2.15;;
45540;SDS011;31265;49.680;8.608;2023-02-28T13:29:40;5.00;;;2.40;;
45540;SDS011;31265;49.680;8.608;2023-02-28T13:32:31;7.75;;;2.85;;
45540;SDS011;31265;49.680;8.608;2023-02-28T13:38:21;6.95;;;2.22;;
45540;SDS011;31265;49.680;8.608;2023-02-28T13:44:09;6.10;;;2.40;;
45540;SDS011;31265;49.680;8.608;2023-02-28T13:50:14;5.30;;;2.53;;
45540;SDS011;31265;49.680;8.608;2023-02-28T13:52:44;5.68;;;2.85;;
45540;SDS011;31265;49.680;8.608;2023-02-28T13:55:25;5.20;;;2.50;;
45540;SDS011;31265;49.680;8.608;2023-02-28T14:00:43;5.30;;;2.10;;
45540;SDS011;31265;49.680;8.608;2023-02-28T14:03:33;4.40;;;2.00;;
45540;SDS011;31265;49.680;8.608;2023-02-28T14:06:22;9.98;;;2.83;;
45540;SDS011;31265;49.680;8.608;2023-02-28T14:08:57;9.05;;;3.25;;
45540;SDS011;31265;49.680;8.608;2023-02-28T14:11:33;9.88;;;2.65;;
45540;SDS011;31265;49.680;8.608;2023-02-28T14:14:04;5.85;;;2.58;;
45540;SDS011;31265;49.680;8.608;2023-02-28T14:16:38;4.38;;;1.98;;
45540;SDS011;31265;49.680;8.608;2023-02-28T14:19:21;3.70;;;2.00;;
45540;SDS011;31265;49.680;8.608;2023-02-28T14:22:02;6.38;;;2.20;;
45540;SDS011;31265;49.680;8.608;2023-02-28T14:24:54;5.03;;;2.38;;
45540;SDS011;31265;49.680;8.608;2023-02-28T14:27:37;6.57;;;2.65;;
45540;SDS011;31265;49.680;8.608;2023-02-28T14:33:16;6.28;;;2.60;;
45540;SDS011;31265;49.680;8.608;2023-02-28T14:35:59;4.32;;;2.15;;
45540;SDS011;31265;49.680;8.608;2023-02-28T14:38:50;5.03;;;2.42;;
45540;SDS011;31265;49.680;8.608;2023-02-28T14:41:32;5.53;;;2.50;;
45540;SDS011;31265;49.680;8.608;2023-02-28T14:44:13;3.85;;;2.22;;
45540;SDS011;31265;49.680;8.608;2023-02-28T14:46:52;5.55;;;2.50;;
45540;SDS011;31265;49.680;8.608;2023-02-28T14:49:34;7.20;;;2.95;;
45540;SDS011;31265;49.680;8.608;2023-02-28T14:52:12;12.48;;;3.25;;
45540;SDS011;31265;49.680;8.608;2023-02-28T14:54:45;5.82;;;2.60;;
45540;SDS011;31265;49.680;8.608;2023-02-28T14:57:23;5.40;;;2.55;;
45540;SDS011;31265;49.680;8.608;2023-02-28T14:59:57;3.15;;;1.83;;
45540;SDS011;31265;49.680;8.608;2023-02-28T15:02:29;9.95;;;2.90;;
45540;SDS011;31265;49.680;8.608;2023-02-28T15:04:59;7.82;;;2.47;;
45540;SDS011;31265;49.680;8.608;2023-02-28T15:07:31;5.25;;;1.90;;
45540;SDS011;31265;49.680;8.608;2023-02-28T15:10:06;4.50;;;2.28;;
45540;SDS011;31265;49.680;8.608;2023-02-28T15:12:41;7.10;;;2.58;;
45540;SDS011;31265;49.680;8.608;2023-02-28T15:15:17;8.18;;;3.05;;
45540;SDS011;31265;49.680;8.608;2023-02-28T15:18:02;7.13;;;2.05;;
45540;SDS011;31265;49.680;8.608;2023-02-28T15:20:33;2.63;;;1.73;;
45540;SDS011;31265;49.680;8.608;2023-02-28T15:23:13;5.65;;;2.63;;
45540;SDS011;31265;49.680;8.608;2023-02-28T15:25:44;4.22;;;2.08;;
45540;SDS011;31265;49.680;8.608;2023-02-28T15:28:13;5.68;;;2.63;;
45540;SDS011;31265;49.680;8.608;2023-02-28T15:30:51;4.80;;;1.90;;
45540;SDS011;31265;49.680;8.608;2023-02-28T15:33:22;6.65;;;2.38;;
45540;SDS011;31265;49.680;8.608;2023-02-28T15:36:02;4.47;;;2.30;;
45540;SDS011;31265;49.680;8.608;2023-02-28T15:38:35;8.07;;;2.42;;
45540;SDS011;31265;49.680;8.608;2023-02-28T15:41:20;4.75;;;2.53;;
45540;SDS011;31265;49.680;8.608;2023-02-28T15:46:43;5.95;;;2.28;;
45540;SDS011;31265;49.680;8.608;2023-02-28T15:49:21;5.35;;;2.47;;
45540;SDS011;31265;49.680;8.608;2023-02-28T15:51:51;4.65;;;2.05;;
45540;SDS011;31265;49.680;8.608;2023-02-28T15:54:23;3.67;;;2.10;;
45540;SDS011;31265;49.680;8.608;2023-02-28T15:56:55;5.82;;;2.03;;
45540;SDS011;31265;49.680;8.608;2023-02-28T15:59:26;5.00;;;2.15;;
45540;SDS011;31265;49.680;8.608;2023-02-28T16:02:04;4.25;;;2.47;;
45540;SDS011;31265;49.680;8.608;2023-02-28T16:07:59;4.40;;;1.98;;
45540;SDS011;31265;49.680;8.608;2023-02-28T16:10:30;5.05;;;2.45;;
45540;SDS011;31265;49.680;8.608;2023-02-28T16:12:59;6.32;;;2.75;;
45540;SDS011;31265;49.680;8.608;2023-02-28T16:15:33;5.68;;;2.30;;
45540;SDS011;31265;49.680;8.608;2023-02-28T16:18:08;6.25;;;2.50;;
45540;SDS011;31265;49.680;8.608;2023-02-28T16:20:39;6.07;;;2.55;;
45540;SDS011;31265;49.680;8.608;2023-02-28T16:23:08;6.60;;;2.70;;
45540;SDS011;31265;49.680;8.608;2023-02-28T16:25:38;5.65;;;2.50;;
45540;SDS011;31265;49.680;8.608;2023-02-28T16:28:10;6.95;;;2.97;;
45540;SDS011;31265;49.680;8.608;2023-02-28T16:30:45;9.07;;;3.28;;
45540;SDS011;31265;49.680;8.608;2023-02-28T16:33:15;4.80;;;2.65;;